Time;durP1;ratioP1;P1;durP2;ratioP2;P2;SDS_P1;SDS_P2;PMS_P1;PMS_P2;Temp;Humidity;BMP_temperature;BMP_pressure;BME280_temperature;BME280_humidity;BME280_pressure;Samples;Min_cycle;Max_cycle;Signal;HPM_P1;HPM_P2
2021/04/26 00:01:06;;;;;;;5.43;2.80;;;8.60;64.20;;;;;;5109290;28;20229;-51
2021/04/26 00:03:31;;;;;;;2.93;2.50;;;8.60;65.10;;;;;;5109667;28;20199;-51
2021/04/26 00:05:57;;;;;;;3.23;2.93;;;8.70;65.30;;;;;;5108182;28;20188;-51
2021/04/26 00:08:23;;;;;;;4.50;2.50;;;8.60;64.70;;;;;;5110474;28;20188;-51
2021/04/26 00:10:48;;;;;;;6.83;2.50;;;8.60;64.90;;;;;;5109660;28;20195;-51
2021/04/26 00:13:14;;;;;;;4.40;2.50;;;8.70;65.80;;;;;;5107969;28;20243;-50
2021/04/26 00:15:40;;;;;;;5.50;2.27;;;8.20;66.60;;;;;;5109526;28;20208;-50
2021/04/26 00:18:06;;;;;;;2.87;2.57;;;8.40;67.50;;;;;;5104871;28;20470;-51
2021/04/26 00:20:32;;;;;;;4.00;2.47;;;8.40;67.70;;;;;;5109383;28;20524;-51
2021/04/26 00:22:59;;;;;;;4.75;2.40;;;8.50;65.30;;;;;;5110140;28;20194;-51
2021/04/26 00:25:25;;;;;;;3.65;2.50;;;8.60;64.20;;;;;;5109869;28;20684;-52
2021/04/26 00:27:51;;;;;;;2.50;2.30;;;8.70;63.30;;;;;;5109762;28;20241;-51
2021/04/26 00:30:20;;;;;;;3.30;2.80;;;8.50;63.00;;;;;;5109225;28;20602;-52
2021/04/26 00:32:47;;;;;;;3.67;2.78;;;8.80;62.50;;;;;;5109978;28;20314;-52
2021/04/26 00:35:13;;;;;;;5.90;2.42;;;9.00;62.00;;;;;;5109373;28;20203;-51
2021/04/26 00:37:40;;;;;;;3.60;2.88;;;8.90;61.00;;;;;;5109515;28;20180;-52
2021/04/26 00:40:09;;;;;;;4.13;3.00;;;9.00;61.20;;;;;;5106558;28;20241;-52
2021/04/26 00:42:35;;;;;;;3.92;2.58;;;9.00;60.90;;;;;;5102639;28;20195;-52
2021/04/26 00:45:07;;;;;;;3.63;2.30;;;9.20;61.30;;;;;;5108255;28;20260;-51
2021/04/26 00:47:33;;;;;;;5.70;2.88;;;9.30;61.20;;;;;;5101701;27;20184;-51
2021/04/26 00:49:59;;;;;;;2.93;2.63;;;9.00;61.20;;;;;;5108600;28;20567;-51
2021/04/26 00:52:24;;;;;;;3.00;2.70;;;9.10;61.90;;;;;;5104252;28;20555;-51
2021/04/26 00:54:50;;;;;;;4.90;2.70;;;9.00;61.50;;;;;;5110437;28;20203;-52
2021/04/26 00:57:16;;;;;;;6.40;2.90;;;9.10;61.50;;;;;;5108315;28;20179;-52
2021/04/26 00:59:42;;;;;;;2.83;2.50;;;8.70;61.50;;;;;;5108522;28;20933;-51
2021/04/26 01:02:08;;;;;;;5.72;3.25;;;9.20;62.10;;;;;;5110052;28;20614;-52
2021/04/26 01:04:34;;;;;;;4.93;3.13;;;9.10;62.30;;;;;;5102654;28;20183;-51
2021/04/26 01:07:00;;;;;;;3.33;2.83;;;9.10;62.60;;;;;;5108213;28;20440;-51
2021/04/26 01:09:26;;;;;;;5.53;3.33;;;9.20;63.10;;;;;;5108331;28;20445;-52
2021/04/26 01:12:19;;;;;;;4.13;3.00;;;9.00;63.10;;;;;;5107762;28;20203;-52
2021/04/26 01:15:02;;;;;;;3.55;3.25;;;9.00;63.50;;;;;;5100414;28;20662;-51
2021/04/26 01:17:33;;;;;;;4.25;3.75;;;8.70;64.00;;;;;;5107882;28;20188;-52
2021/04/26 01:20:28;;;;;;;4.43;3.50;;;8.50;64.30;;;;;;5108110;28;20228;-52
2021/04/26 01:23:31;;;;;;;6.00;3.40;;;9.00;65.50;;;;;;5102004;28;20693;-51
2021/04/26 01:25:59;;;;;;;3.63;3.30;;;9.10;65.10;;;;;;5107413;28;20213;-51
2021/04/26 01:29:00;;;;;;;4.10;3.17;;;8.90;65.30;;;;;;5108189;28;20184;-52
2021/04/26 01:31:55;;;;;;;5.38;3.30;;;9.00;65.40;;;;;;5039505;28;20193;-51
2021/04/26 01:34:26;;;;;;;3.60;2.95;;;9.10;65.70;;;;;;5097899;28;20609;-51
2021/04/26 01:36:53;;;;;;;3.85;3.03;;;8.90;65.70;;;;;;5107661;28;20268;-51
2021/04/26 01:39:19;;;;;;;3.95;3.45;;;8.80;65.90;;;;;;5106408;28;20187;-51
2021/04/26 01:41:46;;;;;;;3.80;3.25;;;8.60;65.60;;;;;;5110081;27;20239;-52
2021/04/26 01:44:12;;;;;;;3.80;3.38;;;8.70;65.80;;;;;;5107596;28;20584;-51
2021/04/26 01:46:42;;;;;;;3.53;3.23;;;8.90;66.90;;;;;;5107635;28;20297;-51
2021/04/26 01:49:08;;;;;;;9.90;3.20;;;8.70;66.40;;;;;;5108871;28;20433;-51
2021/04/26 01:51:34;;;;;;;5.60;3.65;;;8.80;67.20;;;;;;5107293;28;20294;-51
2021/04/26 01:54:01;;;;;;;4.50;3.45;;;8.50;67.10;;;;;;5107583;28;20332;-51
2021/04/26 01:56:27;;;;;;;8.05;4.00;;;8.70;67.30;;;;;;5107339;28;20200;-51
2021/04/26 01:58:54;;;;;;;4.78;4.00;;;8.50;67.50;;;;;;5107225;28;20186;-51
2021/04/26 02:01:22;;;;;;;4.60;4.15;;;8.50;68.10;;;;;;5107177;28;20586;-52
2021/04/26 02:03:56;;;;;;;5.10;4.32;;;8.50;68.20;;;;;;5107008;28;20261;-51
2021/04/26 02:06:22;;;;;;;6.95;4.32;;;8.50;69.40;;;;;;5107411;28;20192;-52
2021/04/26 02:08:49;;;;;;;6.75;4.38;;;8.50;68.90;;;;;;5107632;28;20278;-51
2021/04/26 02:11:15;;;;;;;4.97;3.90;;;8.40;69.40;;;;;;5107275;28;20180;-52
2021/04/26 02:13:43;;;;;;;8.90;4.73;;;8.40;69.90;;;;;;5107687;28;20556;-51
2021/04/26 02:16:09;;;;;;;6.63;4.32;;;8.20;69.40;;;;;;5107348;28;20199;-51
2021/04/26 02:18:35;;;;;;;4.40;4.00;;;8.20;70.20;;;;;;5108524;28;20578;-52
2021/04/26 02:21:01;;;;;;;5.10;4.05;;;8.50;70.80;;;;;;5107644;28;20175;-52
2021/04/26 02:23:29;;;;;;;4.75;4.30;;;7.50;69.90;;;;;;5108565;28;20222;-52
2021/04/26 02:25:56;;;;;;;4.85;3.95;;;8.10;72.00;;;;;;5111751;28;20191;-52
2021/04/26 02:28:21;;;;;;;4.60;4.20;;;8.40;72.00;;;;;;5109460;27;20215;-51
2021/04/26 02:30:52;;;;;;;5.30;4.50;;;8.20;71.70;;;;;;5111367;28;20233;-51
2021/04/26 02:33:23;;;;;;;6.18;3.70;;;8.20;72.20;;;;;;5108596;28;20207;-51
2021/04/26 02:35:54;;;;;;;6.32;4.05;;;8.10;72.50;;;;;;5111473;28;20222;-51
2021/04/26 02:38:24;;;;;;;4.22;3.80;;;8.00;73.60;;;;;;5126775;27;20175;-50
2021/04/26 02:41:17;;;;;;;5.93;3.80;;;7.90;75.10;;;;;;5103241;28;20179;-51
2021/04/26 02:43:48;;;;;;;5.38;4.00;;;7.90;74.30;;;;;;5080858;28;20191;-50
2021/04/26 02:46:15;;;;;;;6.32;4.25;;;8.00;74.20;;;;;;5111306;28;20244;-51
2021/04/26 02:48:45;;;;;;;5.05;4.13;;;7.90;75.60;;;;;;5109965;27;20669;-52
2021/04/26 02:51:12;;;;;;;6.35;5.13;;;7.90;76.40;;;;;;5108267;28;20190;-52
2021/04/26 02:53:38;;;;;;;5.93;4.30;;;7.60;76.10;;;;;;5111161;28;20175;-51
2021/04/26 02:56:15;;;;;;;5.03;4.10;;;7.50;76.60;;;;;;5111120;28;20306;-52
2021/04/26 02:58:44;;;;;;;8.80;4.53;;;7.60;77.60;;;;;;5111297;28;20183;-51
2021/04/26 03:01:11;;;;;;;5.25;4.40;;;7.70;77.70;;;;;;5110683;28;20182;-52
2021/04/26 03:03:39;;;;;;;5.50;4.20;;;7.70;77.30;;;;;;5111349;28;20186;-52
2021/04/26 03:06:05;;;;;;;6.03;4.03;;;7.60;77.60;;;;;;5111227;28;20228;-51
2021/04/26 03:08:33;;;;;;;6.65;4.57;;;7.80;77.00;;;;;;5111190;28;20183;-52
2021/04/26 03:10:59;;;;;;;5.80;4.53;;;7.50;77.60;;;;;;5112503;28;20184;-52
2021/04/26 03:13:30;;;;;;;6.95;4.63;;;7.30;77.80;;;;;;5108247;28;20204;-52
2021/04/26 03:15:56;;;;;;;7.43;5.07;;;7.60;77.50;;;;;;5110875;28;20212;-51
2021/04/26 03:18:21;;;;;;;4.73;4.30;;;7.50;77.30;;;;;;5110752;28;20183;-52
2021/04/26 03:20:48;;;;;;;6.83;4.87;;;7.60;77.10;;;;;;5111140;28;20224;-52
2021/04/26 03:23:27;;;;;;;12.48;4.13;;;7.30;77.70;;;;;;5110484;28;20486;-51
2021/04/26 03:25:58;;;;;;;5.68;4.68;;;7.60;79.00;;;;;;5103166;28;20183;-52
2021/04/26 03:28:24;;;;;;;7.25;5.22;;;7.50;79.60;;;;;;5110516;28;20188;-52
2021/04/26 03:30:50;;;;;;;8.32;4.97;;;7.40;78.00;;;;;;5110048;28;20224;-51
2021/04/26 03:33:16;;;;;;;8.17;4.97;;;7.40;77.40;;;;;;5110244;28;20208;-52
2021/04/26 03:35:42;;;;;;;5.13;4.05;;;7.60;77.80;;;;;;5110424;28;20206;-52
2021/04/26 03:38:10;;;;;;;7.63;5.20;;;7.50;77.90;;;;;;5109991;28;20186;-52
2021/04/26 03:40:36;;;;;;;6.30;5.65;;;7.20;76.70;;;;;;5109695;28;20655;-51
2021/04/26 03:43:02;;;;;;;7.43;5.05;;;7.30;76.90;;;;;;5110045;28;20670;-52
2021/04/26 03:45:28;;;;;;;5.73;5.03;;;7.30;78.20;;;;;;5110355;28;20195;-52
2021/04/26 03:47:54;;;;;;;5.60;4.70;;;7.30;78.00;;;;;;5109722;28;20437;-52
2021/04/26 03:50:22;;;;;;;6.75;4.72;;;7.20;77.60;;;;;;5109896;28;20437;-51
2021/04/26 03:52:49;;;;;;;7.55;5.50;;;7.50;77.60;;;;;;5111493;28;20206;-52
2021/04/26 03:55:18;;;;;;;6.75;5.10;;;7.30;77.50;;;;;;5109704;28;20411;-52
2021/04/26 03:57:44;;;;;;;6.28;4.53;;;7.30;78.30;;;;;;5109101;28;20755;-51
2021/04/26 04:00:11;;;;;;;6.40;5.37;;;7.40;78.40;;;;;;5109719;28;20219;-51
2021/04/26 04:02:38;;;;;;;7.32;5.60;;;7.30;78.00;;;;;;5109334;28;20290;-51
2021/04/26 04:05:06;;;;;;;5.70;5.00;;;7.30;77.80;;;;;;5111258;28;20187;-52
2021/04/26 04:07:32;;;;;;;6.05;4.70;;;7.30;77.00;;;;;;5108460;28;20195;-49
2021/04/26 04:09:58;;;;;;;8.55;5.05;;;7.10;77.10;;;;;;5109598;28;20187;-50
2021/04/26 04:12:23;;;;;;;8.07;5.40;;;7.00;76.50;;;;;;5109550;28;20229;-52
2021/04/26 04:14:49;;;;;;;5.90;5.17;;;7.10;76.20;;;;;;5109316;28;20267;-51
2021/04/26 04:17:15;;;;;;;7.67;6.00;;;7.20;76.30;;;;;;5109215;28;20554;-52
2021/04/26 04:19:41;;;;;;;4.97;4.40;;;7.30;77.00;;;;;;5105691;28;20591;-51
2021/04/26 04:22:08;;;;;;;7.40;5.30;;;6.90;76.50;;;;;;5105987;28;20297;-52
2021/04/26 04:24:33;;;;;;;6.00;4.90;;;7.00;77.10;;;;;;5124244;27;20676;-51
2021/04/26 04:26:59;;;;;;;7.07;5.00;;;7.20;77.30;;;;;;5107787;28;20192;-49
2021/04/26 04:29:25;;;;;;;6.20;5.50;;;7.20;76.90;;;;;;5102184;28;20190;-49
2021/04/26 04:31:50;;;;;;;6.23;4.83;;;7.00;76.80;;;;;;5099253;28;20223;-52
2021/04/26 04:34:16;;;;;;;5.90;5.30;;;7.00;75.40;;;;;;5106456;28;20187;-50
2021/04/26 04:36:42;;;;;;;8.70;5.43;;;7.00;77.40;;;;;;5098881;28;20267;-50
2021/04/26 04:39:07;;;;;;;6.50;4.93;;;7.00;76.50;;;;;;5104176;28;20193;-50
2021/04/26 04:41:33;;;;;;;6.10;4.60;;;7.00;75.40;;;;;;5096383;28;20203;-50
2021/04/26 04:44:02;;;;;;;5.50;4.77;;;7.00;76.00;;;;;;5100026;28;20187;-55
2021/04/26 04:46:28;;;;;;;6.55;4.75;;;6.90;75.20;;;;;;5104598;28;20524;-52
2021/04/26 04:48:54;;;;;;;5.78;4.63;;;7.20;74.20;;;;;;5108022;28;20661;-53
2021/04/26 04:51:21;;;;;;;6.23;4.83;;;7.20;74.50;;;;;;5106280;28;20270;-50
2021/04/26 04:53:46;;;;;;;6.07;4.50;;;7.80;77.90;;;;;;5102392;28;20191;-50
2021/04/26 04:56:13;;;;;;;7.27;4.53;;;7.80;71.90;;;;;;5107640;28;20609;-50
2021/04/26 04:58:39;;;;;;;5.40;4.93;;;7.70;71.30;;;;;;5103701;28;20186;-51
2021/04/26 05:01:04;;;;;;;5.70;4.83;;;7.80;71.10;;;;;;5103173;28;20180;-50
2021/04/26 05:03:30;;;;;;;4.80;4.30;;;7.60;71.30;;;;;;5100489;28;20198;-51
2021/04/26 05:05:55;;;;;;;6.73;4.60;;;7.60;70.70;;;;;;5108574;28;20186;-51
2021/04/26 05:08:21;;;;;;;4.77;4.30;;;7.90;70.30;;;;;;5102318;28;20202;-51
2021/04/26 05:10:47;;;;;;;6.90;4.67;;;7.60;70.00;;;;;;5098814;28;20562;-51
2021/04/26 05:13:13;;;;;;;4.43;4.03;;;7.60;70.50;;;;;;5107611;28;20215;-51
2021/04/26 05:15:39;;;;;;;7.32;4.65;;;7.60;71.00;;;;;;5095121;28;20204;-51
2021/04/26 05:18:07;;;;;;;5.53;5.03;;;7.60;70.80;;;;;;5107965;28;20184;-51
2021/04/26 05:20:33;;;;;;;8.07;4.90;;;7.60;71.90;;;;;;5101240;28;20182;-51
2021/04/26 05:22:59;;;;;;;10.75;5.65;;;7.40;71.30;;;;;;5102436;28;20231;-51
2021/04/26 05:25:24;;;;;;;5.30;4.23;;;7.50;72.40;;;;;;5098823;28;20214;-51
2021/04/26 05:27:50;;;;;;;6.83;5.10;;;7.80;72.70;;;;;;5107192;28;20245;-50
2021/04/26 05:30:16;;;;;;;6.73;5.00;;;7.60;72.00;;;;;;5096163;28;20582;-50
2021/04/26 05:32:45;;;;;;;6.45;5.32;;;7.70;72.10;;;;;;5098721;28;20713;-51
2021/04/26 05:35:12;;;;;;;5.65;4.85;;;7.60;72.40;;;;;;5096190;28;20204;-51
2021/04/26 05:37:38;;;;;;;7.32;5.07;;;7.70;72.00;;;;;;5104339;28;20176;-52
2021/04/26 05:40:04;;;;;;;6.00;5.20;;;7.60;73.10;;;;;;5102719;28;20596;-51
2021/04/26 05:42:30;;;;;;;8.02;5.28;;;7.60;74.00;;;;;;5103139;28;20599;-51
2021/04/26 05:44:55;;;;;;;6.17;5.07;;;7.80;78.90;;;;;;5102838;28;20673;-53
2021/04/26 05:47:21;;;;;;;6.97;5.30;;;7.80;72.30;;;;;;5106623;28;20181;-51
2021/04/26 05:49:46;;;;;;;11.03;4.73;;;7.80;70.60;;;;;;5107701;28;20222;-51
2021/04/26 05:52:12;;;;;;;8.53;5.03;;;7.80;71.40;;;;;;5106272;28;21740;-50
2021/04/26 05:54:38;;;;;;;5.70;4.70;;;7.60;70.70;;;;;;5104504;28;20370;-51
2021/04/26 05:57:04;;;;;;;8.20;4.77;;;7.70;71.10;;;;;;5103061;28;20176;-52
2021/04/26 05:59:29;;;;;;;8.73;5.05;;;7.80;70.90;;;;;;5103082;28;20555;-52
2021/04/26 06:01:55;;;;;;;8.40;5.20;;;7.70;71.60;;;;;;5102152;28;20202;-51
2021/04/26 06:04:20;;;;;;;5.60;4.97;;;8.10;70.70;;;;;;5102112;28;20267;-52
2021/04/26 06:06:46;;;;;;;7.40;4.83;;;8.10;70.40;;;;;;5107066;28;20603;-51
2021/04/26 06:09:12;;;;;;;7.53;4.80;;;8.20;68.40;;;;;;5101842;28;20180;-51
2021/04/26 06:11:37;;;;;;;5.87;4.90;;;8.50;66.60;;;;;;5107260;28;20192;-53
2021/04/26 06:14:03;;;;;;;5.40;4.50;;;8.60;65.90;;;;;;5100074;28;20188;-53
2021/04/26 06:16:29;;;;;;;4.90;4.33;;;8.80;65.10;;;;;;5106797;28;20256;-55
2021/04/26 06:18:54;;;;;;;5.37;4.70;;;9.00;65.20;;;;;;5106078;28;20272;-57
2021/04/26 06:21:20;;;;;;;5.70;4.30;;;9.00;64.90;;;;;;5103719;28;20651;-55
2021/04/26 06:23:46;;;;;;;10.93;4.97;;;9.40;63.10;;;;;;5116147;28;20187;-53
2021/04/26 06:26:11;;;;;;;5.70;4.70;;;9.50;63.20;;;;;;5105108;28;20188;-54
2021/04/26 06:28:37;;;;;;;6.40;5.37;;;9.30;62.90;;;;;;5104405;28;20307;-55
2021/04/26 06:31:02;;;;;;;6.83;5.17;;;9.20;62.80;;;;;;5107886;28;20195;-55
2021/04/26 06:33:28;;;;;;;5.77;5.20;;;9.20;62.90;;;;;;5105497;28;20208;-55
2021/04/26 06:35:54;;;;;;;8.77;5.07;;;9.20;63.10;;;;;;5106360;28;20196;-57
2021/04/26 06:38:21;;;;;;;5.70;5.18;;;9.50;62.40;;;;;;5106317;28;20182;-54
2021/04/26 06:40:47;;;;;;;5.63;5.10;;;9.80;61.10;;;;;;5104443;28;20187;-56
2021/04/26 06:43:14;;;;;;;8.00;5.50;;;9.90;60.30;;;;;;5107429;28;20336;-56
2021/04/26 06:45:40;;;;;;;7.30;4.80;;;10.10;58.80;;;;;;5118987;28;20225;-54
2021/04/26 06:48:08;;;;;;;6.90;5.22;;;10.20;58.30;;;;;;5106380;28;20273;-56
2021/04/26 06:50:34;;;;;;;7.18;5.00;;;10.40;57.90;;;;;;5107363;28;20748;-55
2021/04/26 06:53:00;;;;;;;5.20;4.70;;;10.90;57.90;;;;;;5106570;28;20219;-55
2021/04/26 06:55:26;;;;;;;5.00;4.50;;;11.60;56.10;;;;;;5105373;28;20563;-55
2021/04/26 06:57:52;;;;;;;8.13;5.40;;;12.80;54.80;;;;;;5106639;28;20271;-55
2021/04/26 07:00:20;;;;;;;8.15;5.05;;;13.90;51.50;;;;;;5104043;28;20443;-55
2021/04/26 07:02:47;;;;;;;7.72;5.93;;;14.70;49.80;;;;;;5112242;28;20677;-55
2021/04/26 07:05:13;;;;;;;11.43;5.03;;;15.10;48.80;;;;;;5104652;28;20343;-54
2021/04/26 07:07:39;;;;;;;10.70;4.80;;;16.30;47.60;;;;;;5093390;28;20200;-54
2021/04/26 07:10:05;;;;;;;7.50;5.00;;;17.10;45.70;;;;;;5097620;28;20184;-56
2021/04/26 07:12:31;;;;;;;6.93;5.05;;;18.60;43.20;;;;;;5111874;28;20252;-55
2021/04/26 07:14:57;;;;;;;8.77;6.90;;;20.20;40.80;;;;;;5108496;28;20226;-55
2021/04/26 07:17:23;;;;;;;7.00;5.23;;;20.20;38.80;;;;;;5108882;28;20476;-53
2021/04/26 07:19:50;;;;;;;8.20;5.07;;;20.90;37.30;;;;;;5105351;28;20187;-57
2021/04/26 07:22:16;;;;;;;6.20;4.80;;;21.70;36.70;;;;;;5109068;28;20495;-52
2021/04/26 07:24:42;;;;;;;5.53;5.13;;;22.50;35.10;;;;;;5109387;28;20434;-53
2021/04/26 07:27:07;;;;;;;5.33;4.83;;;22.30;34.30;;;;;;5104816;28;20848;-56
2021/04/26 07:29:33;;;;;;;7.13;5.60;;;21.90;34.70;;;;;;5104118;28;20180;-54
2021/04/26 07:31:59;;;;;;;7.17;5.17;;;21.60;34.50;;;;;;5108365;28;20215;-53
2021/04/26 07:34:25;;;;;;;5.53;5.03;;;22.00;34.50;;;;;;5109369;28;20440;-54
2021/04/26 07:36:51;;;;;;;5.90;5.37;;;22.20;33.80;;;;;;5088094;28;20328;-56
2021/04/26 07:39:18;;;;;;;5.83;5.30;;;23.10;33.10;;;;;;5110103;28;20521;-55
2021/04/26 07:41:44;;;;;;;8.40;4.93;;;22.40;33.00;;;;;;5107924;28;20546;-54
2021/04/26 07:44:10;;;;;;;6.10;5.50;;;22.90;33.20;;;;;;5109370;28;20544;-55
2021/04/26 07:46:36;;;;;;;7.00;5.00;;;23.50;32.30;;;;;;5106421;28;20440;-54
2021/04/26 07:49:02;;;;;;;7.07;5.17;;;24.20;32.00;;;;;;5109526;28;20250;-56
2021/04/26 07:51:30;;;;;;;5.70;5.17;;;24.50;30.80;;;;;;5106932;28;20194;-56
2021/04/26 07:53:56;;;;;;;6.20;5.00;;;24.30;31.00;;;;;;5109458;28;20460;-53
2021/04/26 07:56:22;;;;;;;5.83;5.10;;;25.10;30.80;;;;;;5102476;28;20984;-55
2021/04/26 07:58:47;;;;;;;5.70;5.20;;;25.60;29.60;;;;;;5103898;28;20233;-56
2021/04/26 08:01:13;;;;;;;5.73;5.23;;;23.80;30.40;;;;;;5106273;28;20194;-52
2021/04/26 08:03:39;;;;;;;6.95;5.20;;;23.50;31.20;;;;;;5098903;28;20434;-56
2021/04/26 08:06:05;;;;;;;6.90;5.70;;;24.20;30.70;;;;;;5106726;28;20611;-56
2021/04/26 08:08:32;;;;;;;7.30;5.53;;;25.10;30.50;;;;;;5106856;28;20641;-56
2021/04/26 08:10:57;;;;;;;10.93;5.90;;;24.10;30.10;;;;;;5101314;28;20462;-56
2021/04/26 08:13:25;;;;;;;6.40;5.30;;;24.80;30.50;;;;;;5100461;28;20541;-58
2021/04/26 08:15:51;;;;;;;11.80;6.57;;;24.90;29.80;;;;;;5103259;28;20195;-57
2021/04/26 08:18:17;;;;;;;7.50;5.80;;;25.00;30.40;;;;;;5118702;27;20463;-57
2021/04/26 08:20:43;;;;;;;5.47;5.07;;;25.20;29.60;;;;;;5099280;28;20478;-55
2021/04/26 08:23:08;;;;;;;7.43;5.60;;;24.90;29.90;;;;;;5106050;28;20735;-56
2021/04/26 08:25:34;;;;;;;6.63;5.87;;;23.90;30.00;;;;;;5108295;28;20176;-55
2021/04/26 08:27:59;;;;;;;5.50;5.00;;;24.60;30.60;;;;;;5108621;28;20279;-55
2021/04/26 08:30:25;;;;;;;5.47;5.07;;;25.60;29.50;;;;;;5102619;28;20196;-56
2021/04/26 08:32:51;;;;;;;6.30;5.80;;;25.40;29.10;;;;;;5106105;28;20211;-57
2021/04/26 08:35:17;;;;;;;6.80;6.20;;;24.40;30.00;;;;;;5106701;28;20209;-56
2021/04/26 08:37:42;;;;;;;6.20;5.70;;;23.90;30.40;;;;;;5103602;28;20216;-57
2021/04/26 08:40:09;;;;;;;6.63;5.30;;;25.20;30.10;;;;;;5107747;28;20462;-56
2021/04/26 08:42:35;;;;;;;5.83;5.30;;;25.20;29.70;;;;;;5104411;28;20195;-53
2021/04/26 08:45:01;;;;;;;7.10;6.10;;;24.40;29.90;;;;;;5101834;28;20430;-53
2021/04/26 08:47:28;;;;;;;7.63;7.03;;;24.30;30.70;;;;;;5108126;28;20440;-54
2021/04/26 08:49:56;;;;;;;8.73;5.97;;;24.00;29.60;;;;;;5103733;28;20437;-54
2021/04/26 08:52:21;;;;;;;6.37;4.60;;;23.50;30.80;;;;;;5103580;28;20453;-54
2021/04/26 08:54:47;;;;;;;5.93;5.33;;;23.50;30.90;;;;;;5108095;28;20702;-55
2021/04/26 08:57:13;;;;;;;7.27;6.37;;;24.40;30.90;;;;;;5102046;28;20171;-53
2021/04/26 08:59:42;;;;;;;8.03;5.57;;;24.50;30.40;;;;;;5103425;28;20236;-55
2021/04/26 09:02:08;;;;;;;7.03;5.47;;;26.10;29.50;;;;;;5103393;28;20252;-53
2021/04/26 09:04:35;;;;;;;6.50;5.90;;;26.10;29.00;;;;;;5106673;28;20433;-52
2021/04/26 09:07:04;;;;;;;6.33;5.73;;;25.20;29.40;;;;;;5105329;28;20441;-54
2021/04/26 09:09:33;;;;;;;5.50;5.00;;;24.70;29.60;;;;;;5108126;28;20962;-55
2021/04/26 09:11:59;;;;;;;8.43;6.07;;;25.00;29.90;;;;;;5104529;28;20452;-55
2021/04/26 09:14:39;;;;;;;6.30;5.70;;;24.40;30.50;;;;;;5100686;28;20452;-54
2021/04/26 09:17:25;;;;;;;7.00;5.60;;;24.90;30.00;;;;;;5104538;28;20465;-53
2021/04/26 09:19:51;;;;;;;5.33;4.73;;;24.70;29.90;;;;;;5106707;28;20438;-55
2021/04/26 09:22:36;;;;;;;5.70;5.20;;;24.70;30.00;;;;;;5106107;28;20461;-54
2021/04/26 09:25:23;;;;;;;6.90;5.70;;;24.30;30.40;;;;;;5101220;28;20437;-53
2021/04/26 09:28:00;;;;;;;6.82;5.43;;;23.30;31.10;;;;;;5099343;28;20427;-55
2021/04/26 09:30:42;;;;;;;6.37;5.77;;;23.60;30.50;;;;;;5102072;28;20539;-53
2021/04/26 09:33:33;;;;;;;5.57;5.07;;;24.60;30.40;;;;;;5106408;28;20512;-55
2021/04/26 09:36:20;;;;;;;6.15;5.65;;;24.30;30.60;;;;;;5103840;28;20858;-57
2021/04/26 09:38:47;;;;;;;6.27;5.60;;;24.10;30.60;;;;;;5105212;28;20181;-56
2021/04/26 09:41:17;;;;;;;7.63;6.83;;;24.10;31.10;;;;;;5103215;28;20432;-56
2021/04/26 09:43:48;;;;;;;6.60;6.00;;;23.20;31.40;;;;;;5100303;28;20429;-54
2021/04/26 09:46:15;;;;;;;9.63;5.97;;;22.60;32.80;;;;;;5103912;28;20434;-55
2021/04/26 09:48:41;;;;;;;8.63;6.30;;;22.30;32.10;;;;;;5102865;28;20437;-55
2021/04/26 09:51:17;;;;;;;7.43;5.83;;;22.20;33.70;;;;;;5101351;28;20968;-56
2021/04/26 09:53:43;;;;;;;7.00;6.13;;;22.60;32.70;;;;;;5103608;28;20463;-56
2021/04/26 09:56:38;;;;;;;7.57;5.67;;;22.60;32.40;;;;;;5100687;28;20454;-56
2021/04/26 09:59:04;;;;;;;6.60;6.00;;;22.40;32.00;;;;;;5098323;28;20180;-55
2021/04/26 10:01:30;;;;;;;7.10;6.30;;;22.20;33.30;;;;;;5107596;28;20537;-54
2021/04/26 10:03:56;;;;;;;7.57;6.80;;;22.00;32.80;;;;;;5103212;28;20532;-53
2021/04/26 10:06:24;;;;;;;7.80;5.93;;;21.50;34.20;;;;;;5106155;28;20502;-57
2021/04/26 10:08:51;;;;;;;6.80;6.23;;;21.40;34.40;;;;;;5105452;28;20971;-55
2021/04/26 10:11:19;;;;;;;8.32;7.18;;;21.00;35.50;;;;;;5106572;28;20441;-54
2021/04/26 10:13:47;;;;;;;6.57;5.97;;;20.70;35.10;;;;;;5106509;28;20183;-54
2021/04/26 10:16:32;;;;;;;7.85;5.95;;;20.20;36.10;;;;;;5106738;28;20206;-54
2021/04/26 10:18:59;;;;;;;6.45;5.85;;;20.10;36.40;;;;;;5106403;28;20278;-54
2021/04/26 10:21:25;;;;;;;7.63;6.72;;;20.00;36.40;;;;;;5086086;28;20222;-55
2021/04/26 10:23:53;;;;;;;8.10;6.03;;;20.00;37.00;;;;;;5103635;28;20187;-55
2021/04/26 10:26:47;;;;;;;6.78;6.07;;;19.90;36.80;;;;;;5106529;28;20191;-55
2021/04/26 10:29:32;;;;;;;6.93;6.10;;;19.70;37.20;;;;;;5102231;28;20186;-54
2021/04/26 10:32:01;;;;;;;6.03;5.53;;;19.60;37.60;;;;;;5118853;28;20207;-55
2021/04/26 10:34:56;;;;;;;5.25;4.75;;;19.70;36.70;;;;;;5100150;28;20272;-55
2021/04/26 10:37:27;;;;;;;6.85;5.55;;;19.90;34.90;;;;;;5118365;28;20199;-55
2021/04/26 10:39:58;;;;;;;7.15;6.10;;;20.00;35.20;;;;;;5094431;28;20187;-55
2021/04/26 10:42:35;;;;;;;6.53;5.93;;;19.90;35.70;;;;;;5098470;28;20240;-56
2021/04/26 10:45:22;;;;;;;5.80;5.30;;;20.10;35.00;;;;;;5108490;28;20294;-57
2021/04/26 10:48:05;;;;;;;6.95;6.32;;;19.90;36.00;;;;;;5103737;28;20188;-56
2021/04/26 10:50:33;;;;;;;6.38;5.60;;;20.60;36.50;;;;;;5109280;28;20248;-55
2021/04/26 10:53:00;;;;;;;6.63;5.90;;;20.90;36.20;;;;;;5105849;28;20195;-57
2021/04/26 10:55:25;;;;;;;9.32;6.63;;;20.00;35.90;;;;;;5108682;28;20199;-55
2021/04/26 10:57:59;;;;;;;6.97;6.20;;;20.40;37.50;;;;;;5107110;28;20194;-56
2021/04/26 11:00:33;;;;;;;6.55;5.93;;;19.80;38.10;;;;;;5097980;28;20687;-54
2021/04/26 11:03:05;;;;;;;7.20;6.50;;;19.60;37.50;;;;;;5107237;28;20756;-56
2021/04/26 11:05:35;;;;;;;6.60;6.00;;;19.60;37.40;;;;;;5107729;28;20330;-55
2021/04/26 11:08:15;;;;;;;9.07;6.95;;;19.90;37.30;;;;;;5108713;28;20191;-57
2021/04/26 11:10:50;;;;;;;7.25;6.63;;;19.70;37.00;;;;;;5105016;28;20216;-55
2021/04/26 11:13:34;;;;;;;7.13;6.18;;;19.70;37.40;;;;;;5101092;28;20210;-55
2021/04/26 11:16:17;;;;;;;6.95;6.15;;;19.70;37.50;;;;;;5104709;28;20294;-57
2021/04/26 11:18:52;;;;;;;7.00;6.40;;;19.00;37.90;;;;;;5108031;28;20183;-56
2021/04/26 11:21:44;;;;;;;7.40;6.70;;;18.40;39.30;;;;;;5120752;27;20179;-56
2021/04/26 11:24:11;;;;;;;6.72;6.03;;;18.80;38.90;;;;;;5101437;27;20207;-55
2021/04/26 11:26:37;;;;;;;7.10;6.00;;;18.90;39.00;;;;;;5124282;27;20192;-53
2021/04/26 11:29:05;;;;;;;6.90;6.30;;;19.50;38.60;;;;;;5108050;28;20179;-53
2021/04/26 11:31:43;;;;;;;6.78;6.18;;;20.10;37.10;;;;;;5105288;28;20284;-52
2021/04/26 11:34:19;;;;;;;8.00;5.40;;;20.10;36.70;;;;;;5108976;28;20490;-56
2021/04/26 11:37:00;;;;;;;6.10;5.50;;;20.30;36.60;;;;;;5107636;28;20687;-53
2021/04/26 11:39:34;;;;;;;6.53;5.93;;;20.60;36.50;;;;;;5099597;28;20194;-59
2021/04/26 11:42:01;;;;;;;6.43;5.50;;;21.00;36.10;;;;;;5107653;28;20978;-56
2021/04/26 11:44:27;;;;;;;6.28;5.68;;;20.70;35.30;;;;;;5107091;28;20441;-56
2021/04/26 11:46:54;;;;;;;6.47;5.88;;;20.80;36.10;;;;;;5106187;28;20455;-57
2021/04/26 11:49:23;;;;;;;7.90;6.30;;;20.50;35.80;;;;;;5107437;28;20441;-56
2021/04/26 11:51:52;;;;;;;10.60;6.28;;;20.20;36.60;;;;;;5109132;28;20585;-59
2021/04/26 11:54:23;;;;;;;6.63;5.90;;;20.50;37.00;;;;;;5109308;28;20180;-55
2021/04/26 11:57:19;;;;;;;6.97;6.38;;;20.60;36.30;;;;;;5101657;28;20207;-57
2021/04/26 11:59:55;;;;;;;9.40;6.70;;;20.60;36.20;;;;;;5107801;28;20255;-58
2021/04/26 12:02:28;;;;;;;6.57;5.88;;;19.80;36.90;;;;;;5109528;27;20218;-54
2021/04/26 12:04:58;;;;;;;6.00;5.40;;;20.10;37.10;;;;;;5104841;28;20275;-54
2021/04/26 12:07:24;;;;;;;6.05;5.45;;;19.70;37.20;;;;;;5109681;28;20224;-56
2021/04/26 12:09:54;;;;;;;5.33;4.93;;;19.50;36.90;;;;;;5104192;28;20187;-59
2021/04/26 12:12:25;;;;;;;5.53;4.97;;;19.30;37.10;;;;;;5098041;28;20262;-55
2021/04/26 12:14:59;;;;;;;7.97;5.47;;;19.40;37.80;;;;;;5105450;28;20464;-55
2021/04/26 12:17:25;;;;;;;5.72;5.22;;;19.20;37.00;;;;;;5109280;28;20187;-56
2021/04/26 12:19:51;;;;;;;6.43;5.80;;;19.10;37.70;;;;;;5107979;28;20681;-55
2021/04/26 12:22:20;;;;;;;6.75;4.78;;;19.10;37.50;;;;;;5107941;28;20227;-57
2021/04/26 12:24:46;;;;;;;6.25;5.65;;;19.00;37.30;;;;;;5105595;28;20187;-55
2021/04/26 12:27:22;;;;;;;5.30;4.80;;;18.80;35.90;;;;;;5103903;28;20194;-56
2021/04/26 12:29:48;;;;;;;6.68;5.15;;;18.80;36.70;;;;;;5097682;28;20266;-54
2021/04/26 12:32:22;;;;;;;6.45;5.10;;;18.60;37.20;;;;;;5105390;28;20874;-53
2021/04/26 12:35:00;;;;;;;5.70;5.20;;;18.50;38.00;;;;;;5095137;28;20488;-55
2021/04/26 12:37:39;;;;;;;5.22;4.40;;;18.30;37.10;;;;;;5121587;27;20176;-55
2021/04/26 12:40:13;;;;;;;5.55;4.85;;;18.30;37.70;;;;;;5101182;28;20282;-55
2021/04/26 12:42:40;;;;;;;6.28;5.15;;;18.40;37.60;;;;;;5108062;28;20543;-56
2021/04/26 12:45:21;;;;;;;6.82;5.40;;;18.20;37.60;;;;;;5120844;27;20645;-53
2021/04/26 12:47:54;;;;;;;6.82;5.00;;;18.40;37.30;;;;;;5099292;28;20194;-54
2021/04/26 12:50:42;;;;;;;5.75;5.25;;;18.50;36.60;;;;;;5106674;28;20441;-54
2021/04/26 12:53:18;;;;;;;6.15;5.18;;;18.40;37.40;;;;;;5107890;28;20412;-54
2021/04/26 12:55:48;;;;;;;5.68;5.18;;;18.50;37.20;;;;;;5099649;28;20238;-53
2021/04/26 12:58:20;;;;;;;5.05;4.65;;;18.50;37.00;;;;;;5104901;28;20676;-57
2021/04/26 13:00:51;;;;;;;9.23;4.97;;;18.60;37.60;;;;;;5102010;28;20210;-57
2021/04/26 13:03:23;;;;;;;5.18;4.60;;;18.80;37.60;;;;;;5104014;28;20233;-55